sensor_id;sensor_type;location;lat;lon;timestamp;P1;durP1;ratioP1;P2;durP2;ratioP2
20531;SDS011;10424;52.102;8.084;2023-03-20T00:00:30;38.67;;;14.77;;
20531;SDS011;10424;52.102;8.084;2023-03-20T00:02:59;38.80;;;15.13;;
20531;SDS011;10424;52.102;8.084;2023-03-20T00:05:26;39.03;;;14.70;;
20531;SDS011;10424;52.102;8.084;2023-03-20T00:07:54;41.58;;;15.27;;
20531;SDS011;10424;52.102;8.084;2023-03-20T00:10:24;41.88;;;15.07;;
20531;SDS011;10424;52.102;8.084;2023-03-20T00:12:54;37.15;;;14.30;;
20531;SDS011;10424;52.102;8.084;2023-03-20T00:15:26;33.38;;;13.55;;
20531;SDS011;10424;52.102;8.084;2023-03-20T00:17:54;31.05;;;13.05;;
20531;SDS011;10424;52.102;8.084;2023-03-20T00:20:22;26.75;;;10.98;;
20531;SDS011;10424;52.102;8.084;2023-03-20T00:22:49;33.25;;;12.93;;
20531;SDS011;10424;52.102;8.084;2023-03-20T00:25:17;32.20;;;12.90;;
20531;SDS011;10424;52.102;8.084;2023-03-20T00:27:45;30.90;;;13.15;;
20531;SDS011;10424;52.102;8.084;2023-03-20T00:30:19;31.27;;;12.73;;
20531;SDS011;10424;52.102;8.084;2023-03-20T00:32:47;31.80;;;12.85;;
20531;SDS011;10424;52.102;8.084;2023-03-20T00:35:19;32.40;;;13.68;;
20531;SDS011;10424;52.102;8.084;2023-03-20T00:37:47;30.25;;;12.30;;
20531;SDS011;10424;52.102;8.084;2023-03-20T00:40:14;32.90;;;12.82;;
20531;SDS011;10424;52.102;8.084;2023-03-20T00:42:42;36.20;;;14.23;;
20531;SDS011;10424;52.102;8.084;2023-03-20T00:45:11;33.35;;;13.43;;
20531;SDS011;10424;52.102;8.084;2023-03-20T00:47:41;30.40;;;12.73;;
20531;SDS011;10424;52.102;8.084;2023-03-20T00:50:13;35.75;;;14.57;;
20531;SDS011;10424;52.102;8.084;2023-03-20T00:52:41;33.53;;;14.00;;
20531;SDS011;10424;52.102;8.084;2023-03-20T00:55:08;30.75;;;13.73;;
20531;SDS011;10424;52.102;8.084;2023-03-20T00:57:37;38.20;;;14.93;;
20531;SDS011;10424;52.102;8.084;2023-03-20T01:00:05;34.38;;;14.52;;
20531;SDS011;10424;52.102;8.084;2023-03-20T01:02:33;35.67;;;15.35;;
20531;SDS011;10424;52.102;8.084;2023-03-20T01:05:02;36.42;;;15.20;;
20531;SDS011;10424;52.102;8.084;2023-03-20T01:07:30;38.15;;;15.10;;
20531;SDS011;10424;52.102;8.084;2023-03-20T01:09:57;37.30;;;15.40;;
20531;SDS011;10424;52.102;8.084;2023-03-20T01:12:25;36.70;;;15.20;;
20531;SDS011;10424;52.102;8.084;2023-03-20T01:14:53;39.35;;;15.50;;
20531;SDS011;10424;52.102;8.084;2023-03-20T01:17:22;37.10;;;14.70;;
20531;SDS011;10424;52.102;8.084;2023-03-20T01:19:50;39.47;;;15.05;;
20531;SDS011;10424;52.102;8.084;2023-03-20T01:22:18;37.60;;;15.70;;
20531;SDS011;10424;52.102;8.084;2023-03-20T01:24:46;38.17;;;15.32;;
20531;SDS011;10424;52.102;8.084;2023-03-20T01:27:14;38.28;;;15.10;;
20531;SDS011;10424;52.102;8.084;2023-03-20T01:29:42;40.40;;;15.50;;
20531;SDS011;10424;52.102;8.084;2023-03-20T01:32:10;35.90;;;15.02;;
20531;SDS011;10424;52.102;8.084;2023-03-20T01:34:38;40.40;;;16.23;;
20531;SDS011;10424;52.102;8.084;2023-03-20T01:37:08;38.50;;;14.93;;
20531;SDS011;10424;52.102;8.084;2023-03-20T01:39:38;37.65;;;16.05;;
20531;SDS011;10424;52.102;8.084;2023-03-20T01:42:06;39.50;;;16.33;;
20531;SDS011;10424;52.102;8.084;2023-03-20T01:44:33;38.17;;;14.93;;
20531;SDS011;10424;52.102;8.084;2023-03-20T01:47:02;37.47;;;15.25;;
20531;SDS011;10424;52.102;8.084;2023-03-20T01:52:16;37.78;;;15.43;;
20531;SDS011;10424;52.102;8.084;2023-03-20T01:54:44;38.90;;;15.43;;
20531;SDS011;10424;52.102;8.084;2023-03-20T01:57:12;35.47;;;15.13;;
20531;SDS011;10424;52.102;8.084;2023-03-20T01:59:41;40.13;;;15.93;;
20531;SDS011;10424;52.102;8.084;2023-03-20T02:02:10;36.38;;;15.00;;
20531;SDS011;10424;52.102;8.084;2023-03-20T02:04:41;40.45;;;16.00;;
20531;SDS011;10424;52.102;8.084;2023-03-20T02:07:10;42.03;;;15.18;;
20531;SDS011;10424;52.102;8.084;2023-03-20T02:09:38;40.70;;;15.18;;
20531;SDS011;10424;52.102;8.084;2023-03-20T02:12:07;35.53;;;15.48;;
20531;SDS011;10424;52.102;8.084;2023-03-20T02:14:34;40.65;;;14.98;;
20531;SDS011;10424;52.102;8.084;2023-03-20T02:17:02;39.90;;;15.98;;
20531;SDS011;10424;52.102;8.084;2023-03-20T02:19:42;36.83;;;15.95;;
20531;SDS011;10424;52.102;8.084;2023-03-20T02:22:20;40.38;;;15.27;;
20531;SDS011;10424;52.102;8.084;2023-03-20T02:27:43;39.75;;;15.32;;
20531;SDS011;10424;52.102;8.084;2023-03-20T02:38:41;41.63;;;16.27;;
20531;SDS011;10424;52.102;8.084;2023-03-20T02:41:12;44.85;;;16.30;;
20531;SDS011;10424;52.102;8.084;2023-03-20T02:43:42;39.63;;;15.43;;
20531;SDS011;10424;52.102;8.084;2023-03-20T02:46:12;43.30;;;16.83;;
20531;SDS011;10424;52.102;8.084;2023-03-20T02:48:46;41.92;;;16.10;;
20531;SDS011;10424;52.102;8.084;2023-03-20T02:51:16;47.38;;;18.17;;
20531;SDS011;10424;52.102;8.084;2023-03-20T02:53:50;46.25;;;17.42;;
20531;SDS011;10424;52.102;8.084;2023-03-20T02:56:20;49.60;;;18.10;;
20531;SDS011;10424;52.102;8.084;2023-03-20T02:58:51;47.80;;;18.15;;
20531;SDS011;10424;52.102;8.084;2023-03-20T03:01:21;56.53;;;19.02;;
20531;SDS011;10424;52.102;8.084;2023-03-20T03:03:53;49.42;;;18.50;;
20531;SDS011;10424;52.102;8.084;2023-03-20T03:06:22;56.03;;;20.73;;
20531;SDS011;10424;52.102;8.084;2023-03-20T03:08:53;55.90;;;20.67;;
20531;SDS011;10424;52.102;8.084;2023-03-20T03:11:21;57.47;;;21.58;;
20531;SDS011;10424;52.102;8.084;2023-03-20T03:13:49;53.75;;;20.48;;
20531;SDS011;10424;52.102;8.084;2023-03-20T03:16:18;58.85;;;22.85;;
20531;SDS011;10424;52.102;8.084;2023-03-20T03:18:47;52.63;;;19.80;;
20531;SDS011;10424;52.102;8.084;2023-03-20T03:21:16;57.78;;;22.75;;
20531;SDS011;10424;52.102;8.084;2023-03-20T03:23:45;57.63;;;21.45;;
20531;SDS011;10424;52.102;8.084;2023-03-20T03:26:16;54.58;;;21.50;;
20531;SDS011;10424;52.102;8.084;2023-03-20T03:28:45;58.90;;;21.52;;
20531;SDS011;10424;52.102;8.084;2023-03-20T03:31:14;48.75;;;19.10;;
20531;SDS011;10424;52.102;8.084;2023-03-20T03:33:43;51.33;;;20.42;;
20531;SDS011;10424;52.102;8.084;2023-03-20T03:36:12;48.20;;;19.88;;
20531;SDS011;10424;52.102;8.084;2023-03-20T03:38:43;51.22;;;20.30;;
20531;SDS011;10424;52.102;8.084;2023-03-20T03:41:20;49.65;;;19.50;;
20531;SDS011;10424;52.102;8.084;2023-03-20T03:43:50;45.63;;;18.00;;
20531;SDS011;10424;52.102;8.084;2023-03-20T03:46:18;40.40;;;17.70;;
20531;SDS011;10424;52.102;8.084;2023-03-20T03:48:49;46.97;;;17.58;;
20531;SDS011;10424;52.102;8.084;2023-03-20T03:51:19;40.72;;;16.00;;
20531;SDS011;10424;52.102;8.084;2023-03-20T03:53:48;40.00;;;17.15;;
20531;SDS011;10424;52.102;8.084;2023-03-20T03:56:20;36.35;;;15.57;;
20531;SDS011;10424;52.102;8.084;2023-03-20T03:58:51;42.33;;;16.83;;
20531;SDS011;10424;52.102;8.084;2023-03-20T04:01:20;37.15;;;16.60;;
20531;SDS011;10424;52.102;8.084;2023-03-20T04:03:50;38.45;;;15.80;;
20531;SDS011;10424;52.102;8.084;2023-03-20T04:06:18;41.17;;;16.90;;
20531;SDS011;10424;52.102;8.084;2023-03-20T04:08:46;45.80;;;17.45;;
20531;SDS011;10424;52.102;8.084;2023-03-20T04:11:14;41.00;;;17.17;;
20531;SDS011;10424;52.102;8.084;2023-03-20T04:13:43;44.38;;;16.55;;
20531;SDS011;10424;52.102;8.084;2023-03-20T04:16:11;42.88;;;16.75;;
20531;SDS011;10424;52.102;8.084;2023-03-20T04:18:39;38.72;;;16.00;;
20531;SDS011;10424;52.102;8.084;2023-03-20T04:21:07;41.20;;;16.58;;
20531;SDS011;10424;52.102;8.084;2023-03-20T04:23:34;40.55;;;17.05;;
20531;SDS011;10424;52.102;8.084;2023-03-20T04:26:02;39.75;;;16.45;;
20531;SDS011;10424;52.102;8.084;2023-03-20T04:28:30;43.60;;;16.63;;
20531;SDS011;10424;52.102;8.084;2023-03-20T04:30:59;36.45;;;15.88;;
20531;SDS011;10424;52.102;8.084;2023-03-20T04:33:27;40.75;;;16.35;;
20531;SDS011;10424;52.102;8.084;2023-03-20T04:35:54;45.35;;;17.83;;
20531;SDS011;10424;52.102;8.084;2023-03-20T04:38:22;38.90;;;16.73;;
20531;SDS011;10424;52.102;8.084;2023-03-20T04:40:49;38.90;;;16.23;;
20531;SDS011;10424;52.102;8.084;2023-03-20T04:43:17;41.08;;;17.02;;
20531;SDS011;10424;52.102;8.084;2023-03-20T04:45:44;40.72;;;16.20;;
20531;SDS011;10424;52.102;8.084;2023-03-20T04:48:13;41.10;;;17.25;;
20531;SDS011;10424;52.102;8.084;2023-03-20T04:50:40;37.50;;;15.65;;
20531;SDS011;10424;52.102;8.084;2023-03-20T04:53:10;37.55;;;16.60;;
20531;SDS011;10424;52.102;8.084;2023-03-20T04:55:38;39.95;;;16.23;;
20531;SDS011;10424;52.102;8.084;2023-03-20T04:58:05;35.20;;;15.50;;
20531;SDS011;10424;52.102;8.084;2023-03-20T05:00:32;36.50;;;16.13;;
20531;SDS011;10424;52.102;8.084;2023-03-20T05:03:00;42.92;;;17.60;;
20531;SDS011;10424;52.102;8.084;2023-03-20T05:05:28;38.97;;;17.58;;
20531;SDS011;10424;52.102;8.084;2023-03-20T05:07:56;37.42;;;16.63;;
20531;SDS011;10424;52.102;8.084;2023-03-20T05:10:23;33.60;;;13.98;;
20531;SDS011;10424;52.102;8.084;2023-03-20T05:12:50;38.65;;;16.92;;
20531;SDS011;10424;52.102;8.084;2023-03-20T05:15:17;36.20;;;15.32;;
20531;SDS011;10424;52.102;8.084;2023-03-20T05:17:45;34.97;;;14.27;;
20531;SDS011;10424;52.102;8.084;2023-03-20T05:20:12;40.00;;;16.65;;
20531;SDS011;10424;52.102;8.084;2023-03-20T05:22:41;38.05;;;17.08;;
20531;SDS011;10424;52.102;8.084;2023-03-20T05:25:08;36.50;;;16.75;;
20531;SDS011;10424;52.102;8.084;2023-03-20T05:27:35;37.50;;;17.27;;
20531;SDS011;10424;52.102;8.084;2023-03-20T05:30:03;38.35;;;16.95;;
20531;SDS011;10424;52.102;8.084;2023-03-20T05:32:30;40.42;;;17.23;;
20531;SDS011;10424;52.102;8.084;2023-03-20T05:35:00;39.28;;;17.23;;
20531;SDS011;10424;52.102;8.084;2023-03-20T05:37:27;38.42;;;16.88;;
20531;SDS011;10424;52.102;8.084;2023-03-20T05:39:56;35.95;;;17.15;;
20531;SDS011;10424;52.102;8.084;2023-03-20T05:42:23;28.98;;;12.32;;
20531;SDS011;10424;52.102;8.084;2023-03-20T05:44:50;38.50;;;16.73;;
20531;SDS011;10424;52.102;8.084;2023-03-20T05:47:17;35.55;;;15.73;;
20531;SDS011;10424;52.102;8.084;2023-03-20T05:49:45;42.05;;;18.25;;
20531;SDS011;10424;52.102;8.084;2023-03-20T05:52:12;40.58;;;16.98;;
20531;SDS011;10424;52.102;8.084;2023-03-20T05:54:39;35.85;;;16.40;;
20531;SDS011;10424;52.102;8.084;2023-03-20T05:57:08;36.45;;;16.23;;
20531;SDS011;10424;52.102;8.084;2023-03-20T05:59:35;36.88;;;16.38;;
20531;SDS011;10424;52.102;8.084;2023-03-20T06:02:02;33.28;;;14.25;;
20531;SDS011;10424;52.102;8.084;2023-03-20T06:04:30;39.97;;;17.05;;
20531;SDS011;10424;52.102;8.084;2023-03-20T06:06:59;36.25;;;16.50;;
20531;SDS011;10424;52.102;8.084;2023-03-20T06:09:26;34.03;;;15.35;;
20531;SDS011;10424;52.102;8.084;2023-03-20T06:11:53;36.38;;;16.33;;
20531;SDS011;10424;52.102;8.084;2023-03-20T06:14:22;33.38;;;15.82;;
20531;SDS011;10424;52.102;8.084;2023-03-20T06:16:49;37.35;;;15.10;;
20531;SDS011;10424;52.102;8.084;2023-03-20T06:19:18;32.30;;;14.90;;
20531;SDS011;10424;52.102;8.084;2023-03-20T06:21:45;33.70;;;14.65;;
20531;SDS011;10424;52.102;8.084;2023-03-20T06:24:13;28.45;;;12.40;;
20531;SDS011;10424;52.102;8.084;2023-03-20T06:26:40;35.05;;;14.73;;
20531;SDS011;10424;52.102;8.084;2023-03-20T06:29:08;33.13;;;14.77;;
20531;SDS011;10424;52.102;8.084;2023-03-20T06:31:37;31.58;;;13.85;;
20531;SDS011;10424;52.102;8.084;2023-03-20T06:34:05;32.38;;;13.43;;
20531;SDS011;10424;52.102;8.084;2023-03-20T06:36:32;31.13;;;13.77;;
20531;SDS011;10424;52.102;8.084;2023-03-20T06:39:00;32.50;;;14.48;;
20531;SDS011;10424;52.102;8.084;2023-03-20T06:41:27;34.13;;;14.80;;
20531;SDS011;10424;52.102;8.084;2023-03-20T06:43:54;24.35;;;10.50;;
20531;SDS011;10424;52.102;8.084;2023-03-20T06:46:22;28.60;;;11.27;;
20531;SDS011;10424;52.102;8.084;2023-03-20T06:48:50;31.92;;;13.80;;
20531;SDS011;10424;52.102;8.084;2023-03-20T06:51:18;31.00;;;13.55;;
20531;SDS011;10424;52.102;8.084;2023-03-20T06:53:45;30.13;;;13.60;;
20531;SDS011;10424;52.102;8.084;2023-03-20T06:56:13;30.90;;;13.90;;
20531;SDS011;10424;52.102;8.084;2023-03-20T06:58:41;27.15;;;12.77;;
20531;SDS011;10424;52.102;8.084;2023-03-20T07:01:08;30.05;;;13.30;;
20531;SDS011;10424;52.102;8.084;2023-03-20T07:03:37;25.95;;;11.82;;
20531;SDS011;10424;52.102;8.084;2023-03-20T07:06:07;27.10;;;12.30;;
20531;SDS011;10424;52.102;8.084;2023-03-20T07:08:36;27.85;;;12.85;;
20531;SDS011;10424;52.102;8.084;2023-03-20T07:11:04;27.27;;;11.82;;
20531;SDS011;10424;52.102;8.084;2023-03-20T07:13:31;27.42;;;12.40;;
20531;SDS011;10424;52.102;8.084;2023-03-20T07:15:59;22.90;;;10.40;;
20531;SDS011;10424;52.102;8.084;2023-03-20T07:18:26;24.73;;;11.10;;
20531;SDS011;10424;52.102;8.084;2023-03-20T07:20:56;20.35;;;9.20;;
20531;SDS011;10424;52.102;8.084;2023-03-20T07:23:27;21.25;;;9.98;;
20531;SDS011;10424;52.102;8.084;2023-03-20T07:25:54;23.35;;;10.50;;
20531;SDS011;10424;52.102;8.084;2023-03-20T07:28:22;21.13;;;10.25;;
20531;SDS011;10424;52.102;8.084;2023-03-20T07:30:49;15.52;;;7.88;;
20531;SDS011;10424;52.102;8.084;2023-03-20T07:33:16;17.33;;;8.77;;
20531;SDS011;10424;52.102;8.084;2023-03-20T07:35:45;16.83;;;8.60;;
20531;SDS011;10424;52.102;8.084;2023-03-20T07:38:12;17.70;;;8.77;;
20531;SDS011;10424;52.102;8.084;2023-03-20T07:40:41;16.25;;;7.05;;
20531;SDS011;10424;52.102;8.084;2023-03-20T07:43:08;15.90;;;7.20;;
20531;SDS011;10424;52.102;8.084;2023-03-20T07:45:36;17.17;;;7.65;;
20531;SDS011;10424;52.102;8.084;2023-03-20T07:48:03;13.27;;;6.70;;
20531;SDS011;10424;52.102;8.084;2023-03-20T07:50:31;13.93;;;7.15;;
20531;SDS011;10424;52.102;8.084;2023-03-20T07:52:58;14.57;;;6.68;;
20531;SDS011;10424;52.102;8.084;2023-03-20T07:55:25;15.88;;;6.20;;
20531;SDS011;10424;52.102;8.084;2023-03-20T07:57:54;13.65;;;6.53;;
20531;SDS011;10424;52.102;8.084;2023-03-20T08:00:21;15.25;;;7.25;;
20531;SDS011;10424;52.102;8.084;2023-03-20T08:02:48;15.23;;;7.15;;
20531;SDS011;10424;52.102;8.084;2023-03-20T08:05:16;12.52;;;6.93;;
20531;SDS011;10424;52.102;8.084;2023-03-20T08:07:43;12.68;;;6.82;;
20531;SDS011;10424;52.102;8.084;2023-03-20T08:10:11;13.63;;;6.30;;
20531;SDS011;10424;52.102;8.084;2023-03-20T08:12:38;12.48;;;6.97;;
20531;SDS011;10424;52.102;8.084;2023-03-20T08:15:07;14.35;;;6.75;;
20531;SDS011;10424;52.102;8.084;2023-03-20T08:17:35;14.13;;;6.65;;
20531;SDS011;10424;52.102;8.084;2023-03-20T08:20:02;12.35;;;6.13;;
20531;SDS011;10424;52.102;8.084;2023-03-20T08:22:31;11.75;;;6.38;;
20531;SDS011;10424;52.102;8.084;2023-03-20T08:24:58;10.38;;;6.15;;
20531;SDS011;10424;52.102;8.084;2023-03-20T08:27:25;14.18;;;6.05;;
20531;SDS011;10424;52.102;8.084;2023-03-20T08:29:53;12.70;;;6.05;;
20531;SDS011;10424;52.102;8.084;2023-03-20T08:32:22;10.88;;;5.70;;
20531;SDS011;10424;52.102;8.084;2023-03-20T08:34:50;11.38;;;6.15;;
20531;SDS011;10424;52.102;8.084;2023-03-20T08:37:19;11.93;;;5.97;;
20531;SDS011;10424;52.102;8.084;2023-03-20T08:39:46;9.63;;;5.38;;
20531;SDS011;10424;52.102;8.084;2023-03-20T08:42:13;10.63;;;5.70;;
20531;SDS011;10424;52.102;8.084;2023-03-20T08:44:41;13.65;;;5.80;;
20531;SDS011;10424;52.102;8.084;2023-03-20T08:47:09;11.32;;;5.72;;
20531;SDS011;10424;52.102;8.084;2023-03-20T08:49:37;15.88;;;6.20;;
20531;SDS011;10424;52.102;8.084;2023-03-20T08:52:05;13.13;;;6.15;;
20531;SDS011;10424;52.102;8.084;2023-03-20T08:54:32;11.52;;;5.88;;
20531;SDS011;10424;52.102;8.084;2023-03-20T08:56:59;14.40;;;6.10;;
20531;SDS011;10424;52.102;8.084;2023-03-20T08:59:27;11.15;;;4.88;;
20531;SDS011;10424;52.102;8.084;2023-03-20T09:01:55;9.93;;;5.30;;
20531;SDS011;10424;52.102;8.084;2023-03-20T09:04:22;10.45;;;5.18;;
20531;SDS011;10424;52.102;8.084;2023-03-20T09:06:51;12.07;;;5.70;;
20531;SDS011;10424;52.102;8.084;2023-03-20T09:09:19;11.50;;;5.40;;
20531;SDS011;10424;52.102;8.084;2023-03-20T09:11:51;12.55;;;5.55;;
20531;SDS011;10424;52.102;8.084;2023-03-20T09:14:19;10.68;;;6.28;;
20531;SDS011;10424;52.102;8.084;2023-03-20T09:16:46;14.25;;;5.40;;
20531;SDS011;10424;52.102;8.084;2023-03-20T09:19:13;12.27;;;6.25;;
20531;SDS011;10424;52.102;8.084;2023-03-20T09:21:41;12.23;;;6.60;;
20531;SDS011;10424;52.102;8.084;2023-03-20T09:24:10;13.13;;;6.22;;
20531;SDS011;10424;52.102;8.084;2023-03-20T09:26:37;12.75;;;6.55;;
20531;SDS011;10424;52.102;8.084;2023-03-20T09:29:05;12.93;;;6.45;;
20531;SDS011;10424;52.102;8.084;2023-03-20T09:31:32;13.60;;;6.20;;
20531;SDS011;10424;52.102;8.084;2023-03-20T09:33:59;18.30;;;5.95;;
20531;SDS011;10424;52.102;8.084;2023-03-20T09:36:27;12.80;;;6.18;;
20531;SDS011;10424;52.102;8.084;2023-03-20T09:38:54;12.10;;;5.80;;
20531;SDS011;10424;52.102;8.084;2023-03-20T09:41:24;12.98;;;6.30;;
20531;SDS011;10424;52.102;8.084;2023-03-20T09:44:01;14.30;;;6.18;;
20531;SDS011;10424;52.102;8.084;2023-03-20T09:46:44;10.65;;;5.53;;
20531;SDS011;10424;52.102;8.084;2023-03-20T09:49:16;11.57;;;5.68;;
20531;SDS011;10424;52.102;8.084;2023-03-20T09:51:46;10.07;;;5.03;;
20531;SDS011;10424;52.102;8.084;2023-03-20T09:54:17;9.25;;;4.38;;
20531;SDS011;10424;52.102;8.084;2023-03-20T09:56:49;7.60;;;4.00;;
20531;SDS011;10424;52.102;8.084;2023-03-20T09:59:17;9.35;;;4.35;;
20531;SDS011;10424;52.102;8.084;2023-03-20T10:01:47;8.13;;;4.57;;
20531;SDS011;10424;52.102;8.084;2023-03-20T10:04:15;11.73;;;4.60;;
20531;SDS011;10424;52.102;8.084;2023-03-20T10:06:42;8.60;;;3.83;;
20531;SDS011;10424;52.102;8.084;2023-03-20T10:09:11;8.23;;;3.90;;
20531;SDS011;10424;52.102;8.084;2023-03-20T10:11:52;8.05;;;3.70;;
20531;SDS011;10424;52.102;8.084;2023-03-20T10:14:23;7.85;;;3.95;;
20531;SDS011;10424;52.102;8.084;2023-03-20T10:16:58;7.43;;;3.67;;
20531;SDS011;10424;52.102;8.084;2023-03-20T10:19:27;7.03;;;3.53;;
20531;SDS011;10424;52.102;8.084;2023-03-20T10:21:56;7.70;;;3.70;;
20531;SDS011;10424;52.102;8.084;2023-03-20T10:24:25;7.88;;;3.92;;
20531;SDS011;10424;52.102;8.084;2023-03-20T10:26:57;8.35;;;3.25;;
20531;SDS011;10424;52.102;8.084;2023-03-20T10:29:29;8.18;;;3.28;;
20531;SDS011;10424;52.102;8.084;2023-03-20T10:32:00;6.00;;;2.95;;
20531;SDS011;10424;52.102;8.084;2023-03-20T10:34:37;7.05;;;3.03;;
20531;SDS011;10424;52.102;8.084;2023-03-20T10:37:13;6.15;;;3.10;;
20531;SDS011;10424;52.102;8.084;2023-03-20T10:39:48;8.00;;;2.92;;
20531;SDS011;10424;52.102;8.084;2023-03-20T10:42:20;5.03;;;2.70;;
20531;SDS011;10424;52.102;8.084;2023-03-20T10:44:49;4.53;;;2.63;;
20531;SDS011;10424;52.102;8.084;2023-03-20T10:47:17;5.47;;;2.50;;
20531;SDS011;10424;52.102;8.084;2023-03-20T10:49:47;5.47;;;2.50;;
20531;SDS011;10424;52.102;8.084;2023-03-20T10:52:16;5.50;;;2.33;;
20531;SDS011;10424;52.102;8.084;2023-03-20T10:54:45;4.60;;;3.05;;
20531;SDS011;10424;52.102;8.084;2023-03-20T10:57:16;6.70;;;2.90;;
20531;SDS011;10424;52.102;8.084;2023-03-20T10:59:45;5.88;;;2.92;;
20531;SDS011;10424;52.102;8.084;2023-03-20T11:02:15;5.20;;;2.50;;
20531;SDS011;10424;52.102;8.084;2023-03-20T11:04:42;10.65;;;3.00;;
20531;SDS011;10424;52.102;8.084;2023-03-20T11:07:12;4.68;;;2.50;;
20531;SDS011;10424;52.102;8.084;2023-03-20T11:09:39;5.65;;;2.80;;
20531;SDS011;10424;52.102;8.084;2023-03-20T11:12:12;5.88;;;2.80;;
20531;SDS011;10424;52.102;8.084;2023-03-20T11:14:40;5.55;;;2.88;;
20531;SDS011;10424;52.102;8.084;2023-03-20T11:17:09;5.22;;;3.10;;
20531;SDS011;10424;52.102;8.084;2023-03-20T11:19:37;5.25;;;2.67;;
20531;SDS011;10424;52.102;8.084;2023-03-20T11:22:09;7.25;;;2.80;;
20531;SDS011;10424;52.102;8.084;2023-03-20T11:24:50;4.32;;;2.50;;
20531;SDS011;10424;52.102;8.084;2023-03-20T11:27:18;7.40;;;2.75;;
20531;SDS011;10424;52.102;8.084;2023-03-20T11:29:47;4.70;;;2.70;;
20531;SDS011;10424;52.102;8.084;2023-03-20T11:32:18;5.25;;;2.80;;
20531;SDS011;10424;52.102;8.084;2023-03-20T11:34:47;5.47;;;2.50;;
20531;SDS011;10424;52.102;8.084;2023-03-20T11:37:21;4.60;;;2.15;;
20531;SDS011;10424;52.102;8.084;2023-03-20T11:39:55;4.68;;;2.40;;
20531;SDS011;10424;52.102;8.084;2023-03-20T11:42:24;4.35;;;2.38;;
20531;SDS011;10424;52.102;8.084;2023-03-20T11:44:58;6.38;;;2.80;;
20531;SDS011;10424;52.102;8.084;2023-03-20T11:47:27;4.82;;;2.72;;
20531;SDS011;10424;52.102;8.084;2023-03-20T11:49:57;6.22;;;2.85;;
20531;SDS011;10424;52.102;8.084;2023-03-20T11:52:26;4.50;;;2.20;;
20531;SDS011;10424;52.102;8.084;2023-03-20T11:54:55;6.35;;;2.90;;
20531;SDS011;10424;52.102;8.084;2023-03-20T11:57:33;7.28;;;2.85;;
20531;SDS011;10424;52.102;8.084;2023-03-20T12:00:02;5.15;;;3.10;;
20531;SDS011;10424;52.102;8.084;2023-03-20T12:02:32;4.95;;;2.92;;
20531;SDS011;10424;52.102;8.084;2023-03-20T12:04:59;6.32;;;2.85;;
20531;SDS011;10424;52.102;8.084;2023-03-20T12:07:27;5.47;;;2.53;;
20531;SDS011;10424;52.102;8.084;2023-03-20T12:09:56;5.05;;;2.35;;
20531;SDS011;10424;52.102;8.084;2023-03-20T12:12:28;6.00;;;2.90;;
20531;SDS011;10424;52.102;8.084;2023-03-20T12:15:00;6.15;;;2.08;;
20531;SDS011;10424;52.102;8.084;2023-03-20T12:17:35;5.00;;;2.42;;
20531;SDS011;10424;52.102;8.084;2023-03-20T12:20:10;3.80;;;2.28;;
20531;SDS011;10424;52.102;8.084;2023-03-20T12:22:41;5.90;;;2.80;;
20531;SDS011;10424;52.102;8.084;2023-03-20T12:25:17;7.20;;;2.90;;
20531;SDS011;10424;52.102;8.084;2023-03-20T12:27:46;4.50;;;2.28;;
20531;SDS011;10424;52.102;8.084;2023-03-20T12:30:17;5.60;;;2.85;;
20531;SDS011;10424;52.102;8.084;2023-03-20T12:32:47;5.50;;;2.60;;
20531;SDS011;10424;52.102;8.084;2023-03-20T12:35:18;5.75;;;2.70;;
20531;SDS011;10424;52.102;8.084;2023-03-20T12:37:48;6.00;;;2.90;;
20531;SDS011;10424;52.102;8.084;2023-03-20T12:40:16;5.50;;;2.33;;
20531;SDS011;10424;52.102;8.084;2023-03-20T12:42:48;5.97;;;2.88;;
20531;SDS011;10424;52.102;8.084;2023-03-20T12:45:20;5.38;;;2.92;;
20531;SDS011;10424;52.102;8.084;2023-03-20T12:47:56;6.40;;;2.88;;
20531;SDS011;10424;52.102;8.084;2023-03-20T12:50:29;5.80;;;3.00;;
20531;SDS011;10424;52.102;8.084;2023-03-20T12:53:04;6.65;;;3.10;;
20531;SDS011;10424;52.102;8.084;2023-03-20T12:55:38;9.48;;;3.15;;
20531;SDS011;10424;52.102;8.084;2023-03-20T12:58:15;4.88;;;2.85;;
20531;SDS011;10424;52.102;8.084;2023-03-20T13:00:47;7.75;;;3.20;;
20531;SDS011;10424;52.102;8.084;2023-03-20T13:03:21;6.47;;;2.83;;
20531;SDS011;10424;52.102;8.084;2023-03-20T13:05:54;7.47;;;3.08;;
20531;SDS011;10424;52.102;8.084;2023-03-20T13:08:38;7.50;;;2.85;;
20531;SDS011;10424;52.102;8.084;2023-03-20T13:11:09;6.43;;;3.10;;
20531;SDS011;10424;52.102;8.084;2023-03-20T13:13:41;7.65;;;3.30;;
20531;SDS011;10424;52.102;8.084;2023-03-20T13:16:12;3.35;;;1.80;;
20531;SDS011;10424;52.102;8.084;2023-03-20T13:18:49;7.50;;;2.50;;
20531;SDS011;10424;52.102;8.084;2023-03-20T13:21:21;4.80;;;2.90;;
20531;SDS011;10424;52.102;8.084;2023-03-20T13:23:52;6.20;;;2.90;;
20531;SDS011;10424;52.102;8.084;2023-03-20T13:26:22;6.47;;;3.00;;
20531;SDS011;10424;52.102;8.084;2023-03-20T13:28:54;7.15;;;3.10;;
20531;SDS011;10424;52.102;8.084;2023-03-20T13:31:26;7.25;;;3.17;;
20531;SDS011;10424;52.102;8.084;2023-03-20T13:33:59;6.57;;;3.10;;
20531;SDS011;10424;52.102;8.084;2023-03-20T13:36:36;5.88;;;2.90;;
20531;SDS011;10424;52.102;8.084;2023-03-20T13:39:09;6.65;;;3.13;;
20531;SDS011;10424;52.102;8.084;2023-03-20T13:41:38;8.45;;;3.65;;
20531;SDS011;10424;52.102;8.084;2023-03-20T13:44:05;4.93;;;2.80;;
20531;SDS011;10424;52.102;8.084;2023-03-20T13:46:37;8.88;;;3.67;;
20531;SDS011;10424;52.102;8.084;2023-03-20T13:49:12;6.53;;;2.72;;
20531;SDS011;10424;52.102;8.084;2023-03-20T13:51:41;8.57;;;3.58;;
20531;SDS011;10424;52.102;8.084;2023-03-20T13:54:13;8.70;;;3.53;;
20531;SDS011;10424;52.102;8.084;2023-03-20T13:56:44;9.63;;;3.67;;
20531;SDS011;10424;52.102;8.084;2023-03-20T13:59:29;7.57;;;3.22;;
20531;SDS011;10424;52.102;8.084;2023-03-20T14:01:59;7.20;;;3.53;;
20531;SDS011;10424;52.102;8.084;2023-03-20T14:04:30;6.95;;;3.28;;
20531;SDS011;10424;52.102;8.084;2023-03-20T14:06:58;7.47;;;3.25;;
20531;SDS011;10424;52.102;8.084;2023-03-20T14:09:27;7.28;;;3.90;;
20531;SDS011;10424;52.102;8.084;2023-03-20T14:11:55;7.50;;;4.03;;
20531;SDS011;10424;52.102;8.084;2023-03-20T14:14:24;8.95;;;3.97;;
20531;SDS011;10424;52.102;8.084;2023-03-20T14:19:44;9.15;;;3.58;;
20531;SDS011;10424;52.102;8.084;2023-03-20T14:22:16;6.80;;;3.75;;
20531;SDS011;10424;52.102;8.084;2023-03-20T14:24:48;6.90;;;3.70;;
20531;SDS011;10424;52.102;8.084;2023-03-20T14:27:16;8.05;;;4.22;;
20531;SDS011;10424;52.102;8.084;2023-03-20T14:29:44;6.47;;;3.83;;
20531;SDS011;10424;52.102;8.084;2023-03-20T14:32:21;11.15;;;4.70;;
20531;SDS011;10424;52.102;8.084;2023-03-20T14:34:51;6.93;;;4.13;;
20531;SDS011;10424;52.102;8.084;2023-03-20T14:37:26;6.57;;;4.05;;
20531;SDS011;10424;52.102;8.084;2023-03-20T14:39:56;10.13;;;4.65;;
20531;SDS011;10424;52.102;8.084;2023-03-20T14:42:28;7.07;;;4.15;;
20531;SDS011;10424;52.102;8.084;2023-03-20T14:45:05;7.95;;;4.30;;
20531;SDS011;10424;52.102;8.084;2023-03-20T14:47:42;8.57;;;4.20;;
20531;SDS011;10424;52.102;8.084;2023-03-20T14:50:13;8.35;;;3.33;;
20531;SDS011;10424;52.102;8.084;2023-03-20T14:52:48;8.27;;;3.78;;
20531;SDS011;10424;52.102;8.084;2023-03-20T14:55:28;7.88;;;4.20;;
20531;SDS011;10424;52.102;8.084;2023-03-20T14:57:56;7.20;;;4.75;;
20531;SDS011;10424;52.102;8.084;2023-03-20T15:00:24;7.75;;;3.55;;
20531;SDS011;10424;52.102;8.084;2023-03-20T15:02:52;9.32;;;4.22;;